sensor_id;sensor_type;location;lat;lon;timestamp;pressure;altitude;pressure_sealevel;temperature;humidity
13612;BME280;6877;51.436;6.774;2022-10-16T00:00:56;100752.94;;;11.94;100.00
13612;BME280;6877;51.436;6.774;2022-10-16T00:03:23;100757.44;;;11.89;100.00
13612;BME280;6877;51.436;6.774;2022-10-16T00:05:59;100768.81;;;11.88;100.00
13612;BME280;6877;51.436;6.774;2022-10-16T00:08:31;100761.88;;;11.85;100.00
13612;BME280;6877;51.436;6.774;2022-10-16T00:11:06;100767.09;;;11.85;100.00
13612;BME280;6877;51.436;6.774;2022-10-16T00:13:40;100766.25;;;11.85;100.00
13612;BME280;6877;51.436;6.774;2022-10-16T00:16:12;100760.13;;;11.84;100.00
13612;BME280;6877;51.436;6.774;2022-10-16T00:18:44;100764.59;;;11.79;100.00
13612;BME280;6877;51.436;6.774;2022-10-16T00:21:19;100772.59;;;11.74;100.00
13612;BME280;6877;51.436;6.774;2022-10-16T00:23:58;100778.72;;;11.73;100.00
13612;BME280;6877;51.436;6.774;2022-10-16T00:26:32;100769.13;;;11.72;100.00
13612;BME280;6877;51.436;6.774;2022-10-16T00:29:04;100777.00;;;11.72;100.00
13612;BME280;6877;51.436;6.774;2022-10-16T00:31:37;100783.97;;;11.73;100.00
13612;BME280;6877;51.436;6.774;2022-10-16T00:34:08;100772.59;;;11.74;100.00
13612;BME280;6877;51.436;6.774;2022-10-16T00:36:39;100764.72;;;11.74;100.00
13612;BME280;6877;51.436;6.774;2022-10-16T00:39:11;100774.28;;;11.77;100.00
13612;BME280;6877;51.436;6.774;2022-10-16T00:41:42;100768.91;;;11.81;100.00
13612;BME280;6877;51.436;6.774;2022-10-16T00:44:52;100767.22;;;11.79;100.00
13612;BME280;6877;51.436;6.774;2022-10-16T00:50:04;100775.00;;;11.83;100.00
13612;BME280;6877;51.436;6.774;2022-10-16T00:52:40;100756.63;;;11.85;100.00
13612;BME280;6877;51.436;6.774;2022-10-16T00:55:14;100754.03;;;11.82;100.00
13612;BME280;6877;51.436;6.774;2022-10-16T00:57:46;100757.69;;;11.76;100.00
13612;BME280;6877;51.436;6.774;2022-10-16T01:00:21;100757.75;;;11.73;100.00
13612;BME280;6877;51.436;6.774;2022-10-16T01:03:01;100761.19;;;11.75;100.00
13612;BME280;6877;51.436;6.774;2022-10-16T01:05:39;100763.00;;;11.73;100.00
13612;BME280;6877;51.436;6.774;2022-10-16T01:08:19;100766.50;;;11.72;100.00
13612;BME280;6877;51.436;6.774;2022-10-16T01:11:04;100759.63;;;11.68;100.00
13612;BME280;6877;51.436;6.774;2022-10-16T01:13:46;100765.72;;;11.69;100.00
13612;BME280;6877;51.436;6.774;2022-10-16T01:16:31;100767.53;;;11.67;100.00
13612;BME280;6877;51.436;6.774;2022-10-16T01:19:10;100771.94;;;11.63;100.00
13612;BME280;6877;51.436;6.774;2022-10-16T01:21:44;100766.78;;;11.60;100.00
13612;BME280;6877;51.436;6.774;2022-10-16T01:24:35;100771.22;;;11.58;100.00
13612;BME280;6877;51.436;6.774;2022-10-16T01:27:27;100773.84;;;11.58;100.00
13612;BME280;6877;51.436;6.774;2022-10-16T01:30:02;100771.22;;;11.56;100.00
13612;BME280;6877;51.436;6.774;2022-10-16T01:40:50;100765.56;;;11.75;100.00
13612;BME280;6877;51.436;6.774;2022-10-16T01:43:31;100760.19;;;11.81;100.00
13612;BME280;6877;51.436;6.774;2022-10-16T01:46:05;100758.38;;;11.86;100.00
13612;BME280;6877;51.436;6.774;2022-10-16T01:48:39;100761.78;;;11.88;100.00
13612;BME280;6877;51.436;6.774;2022-10-16T01:51:13;100753.84;;;11.93;100.00
13612;BME280;6877;51.436;6.774;2022-10-16T01:53:54;100753.84;;;11.93;100.00
13612;BME280;6877;51.436;6.774;2022-10-16T01:56:29;100760.72;;;11.97;100.00
13612;BME280;6877;51.436;6.774;2022-10-16T01:59:06;100765.94;;;11.98;100.00
13612;BME280;6877;51.436;6.774;2022-10-16T02:01:40;100770.28;;;11.99;100.00
13612;BME280;6877;51.436;6.774;2022-10-16T02:04:24;100762.41;;;11.99;100.00
13612;BME280;6877;51.436;6.774;2022-10-16T02:06:58;100775.47;;;12.01;100.00
13612;BME280;6877;51.436;6.774;2022-10-16T02:09:31;100777.31;;;11.97;100.00
13612;BME280;6877;51.436;6.774;2022-10-16T02:12:16;100778.41;;;11.89;100.00
13612;BME280;6877;51.436;6.774;2022-10-16T02:14:50;100778.59;;;11.79;100.00
13612;BME280;6877;51.436;6.774;2022-10-16T02:17:23;100780.44;;;11.74;100.00
13612;BME280;6877;51.436;6.774;2022-10-16T02:19:56;100782.28;;;11.71;100.00
13612;BME280;6877;51.436;6.774;2022-10-16T02:27:57;100789.09;;;11.79;100.00
13612;BME280;6877;51.436;6.774;2022-10-16T02:30:40;100781.97;;;11.85;100.00
13612;BME280;6877;51.436;6.774;2022-10-16T02:33:13;100794.16;;;11.87;100.00
13612;BME280;6877;51.436;6.774;2022-10-16T02:35:47;100785.41;;;11.88;100.00
13612;BME280;6877;51.436;6.774;2022-10-16T02:38:21;100789.84;;;11.86;100.00
13612;BME280;6877;51.436;6.774;2022-10-16T02:40:52;100796.78;;;11.87;100.00
13612;BME280;6877;51.436;6.774;2022-10-16T02:43:25;100784.59;;;11.86;100.00
13612;BME280;6877;51.436;6.774;2022-10-16T02:45:56;100778.50;;;11.86;100.00
13612;BME280;6877;51.436;6.774;2022-10-16T02:48:28;100775.00;;;11.83;100.00
13612;BME280;6877;51.436;6.774;2022-10-16T02:50:59;100782.03;;;11.81;100.00
13612;BME280;6877;51.436;6.774;2022-10-16T02:53:31;100778.53;;;11.82;100.00
13612;BME280;6877;51.436;6.774;2022-10-16T02:56:02;100775.84;;;11.84;100.00
13612;BME280;6877;51.436;6.774;2022-10-16T02:58:33;100783.69;;;11.87;100.00
13612;BME280;6877;51.436;6.774;2022-10-16T03:01:00;100775.72;;;11.92;100.00
13612;BME280;6877;51.436;6.774;2022-10-16T03:03:32;100776.59;;;11.91;100.00
13612;BME280;6877;51.436;6.774;2022-10-16T03:06:03;100785.31;;;11.93;100.00
13612;BME280;6877;51.436;6.774;2022-10-16T03:08:35;100779.13;;;11.95;100.00
13612;BME280;6877;51.436;6.774;2022-10-16T03:11:06;100788.75;;;11.95;100.00
13612;BME280;6877;51.436;6.774;2022-10-16T03:13:38;100790.47;;;11.96;100.00
13612;BME280;6877;51.436;6.774;2022-10-16T03:16:04;100789.50;;;12.00;100.00
13612;BME280;6877;51.436;6.774;2022-10-16T03:18:31;100785.00;;;12.05;100.00
13612;BME280;6877;51.436;6.774;2022-10-16T03:21:02;100778.84;;;12.08;100.00
13612;BME280;6877;51.436;6.774;2022-10-16T03:23:33;100789.41;;;12.04;100.00
13612;BME280;6877;51.436;6.774;2022-10-16T03:26:05;100785.97;;;12.01;100.00
13612;BME280;6877;51.436;6.774;2022-10-16T03:28:37;100779.06;;;11.98;100.00
13612;BME280;6877;51.436;6.774;2022-10-16T03:31:08;100779.94;;;11.97;100.00
13612;BME280;6877;51.436;6.774;2022-10-16T03:33:39;100787.81;;;11.97;100.00
13612;BME280;6877;51.436;6.774;2022-10-16T03:36:11;100783.41;;;11.98;100.00
13612;BME280;6877;51.436;6.774;2022-10-16T03:38:42;100779.94;;;11.97;100.00
13612;BME280;6877;51.436;6.774;2022-10-16T03:41:13;100784.38;;;11.95;100.00
13612;BME280;6877;51.436;6.774;2022-10-16T03:43:45;100784.44;;;11.92;100.00
13612;BME280;6877;51.436;6.774;2022-10-16T03:46:16;100795.00;;;11.89;100.00
13612;BME280;6877;51.436;6.774;2022-10-16T03:48:48;100791.59;;;11.84;100.00
13612;BME280;6877;51.436;6.774;2022-10-16T03:51:19;100795.97;;;11.83;100.00
13612;BME280;6877;51.436;6.774;2022-10-16T03:53:50;100805.59;;;11.85;100.00
13612;BME280;6877;51.436;6.774;2022-10-16T03:56:22;100804.69;;;11.84;100.00
13612;BME280;6877;51.436;6.774;2022-10-16T03:58:53;100801.22;;;11.83;100.00
13612;BME280;6877;51.436;6.774;2022-10-16T04:01:25;100799.47;;;11.86;100.00
13612;BME280;6877;51.436;6.774;2022-10-16T04:03:56;100791.59;;;11.86;100.00
13612;BME280;6877;51.436;6.774;2022-10-16T04:06:27;100783.66;;;11.89;100.00
13612;BME280;6877;51.436;6.774;2022-10-16T04:08:59;100796.78;;;11.89;100.00
13612;BME280;6877;51.436;6.774;2022-10-16T04:11:30;100815.13;;;11.89;100.00
13612;BME280;6877;51.436;6.774;2022-10-16T04:14:01;100803.75;;;11.88;100.00
13612;BME280;6877;51.436;6.774;2022-10-16T04:16:33;100806.28;;;11.93;100.00
13612;BME280;6877;51.436;6.774;2022-10-16T04:19:04;100815.94;;;11.91;100.00
13612;BME280;6877;51.436;6.774;2022-10-16T04:21:36;100821.22;;;11.89;100.00
13612;BME280;6877;51.436;6.774;2022-10-16T04:24:07;100811.66;;;11.87;100.00
13612;BME280;6877;51.436;6.774;2022-10-16T04:26:39;100816.97;;;11.82;100.00
13612;BME280;6877;51.436;6.774;2022-10-16T04:29:10;100817.94;;;11.78;100.00
13612;BME280;6877;51.436;6.774;2022-10-16T04:31:41;100832.94;;;11.73;100.00
13612;BME280;6877;51.436;6.774;2022-10-16T04:34:13;100838.19;;;11.71;100.00
13612;BME280;6877;51.436;6.774;2022-10-16T04:36:47;100845.25;;;11.68;100.00
13612;BME280;6877;51.436;6.774;2022-10-16T04:39:18;100854.06;;;11.65;100.00
13612;BME280;6877;51.436;6.774;2022-10-16T04:41:50;100854.03;;;11.67;100.00
13612;BME280;6877;51.436;6.774;2022-10-16T04:44:21;100849.72;;;11.63;100.00
13612;BME280;6877;51.436;6.774;2022-10-16T04:46:53;100846.25;;;11.62;100.00
13612;BME280;6877;51.436;6.774;2022-10-16T04:49:24;100851.47;;;11.64;100.00
13612;BME280;6877;51.436;6.774;2022-10-16T04:51:56;100851.34;;;11.70;100.00
13612;BME280;6877;51.436;6.774;2022-10-16T04:54:28;100862.63;;;11.73;100.00
13612;BME280;6877;51.436;6.774;2022-10-16T04:56:59;100857.25;;;11.79;100.00
13612;BME280;6877;51.436;6.774;2022-10-16T04:59:31;100858.97;;;11.80;100.00
13612;BME280;6877;51.436;6.774;2022-10-16T05:02:02;100859.88;;;11.79;100.00
13612;BME280;6877;51.436;6.774;2022-10-16T05:04:34;100879.94;;;11.80;100.00
13612;BME280;6877;51.436;6.774;2022-10-16T05:07:00;100875.50;;;11.84;99.81
13612;BME280;6877;51.436;6.774;2022-10-16T05:09:32;100879.84;;;11.87;100.00
13612;BME280;6877;51.436;6.774;2022-10-16T05:12:03;100878.94;;;11.88;99.86
13612;BME280;6877;51.436;6.774;2022-10-16T05:14:35;100879.88;;;11.85;99.83
13612;BME280;6877;51.436;6.774;2022-10-16T05:17:07;100884.16;;;11.89;99.32
13612;BME280;6877;51.436;6.774;2022-10-16T05:19:38;100879.72;;;11.91;99.24
13612;BME280;6877;51.436;6.774;2022-10-16T05:22:09;100881.47;;;11.92;99.31
13612;BME280;6877;51.436;6.774;2022-10-16T05:24:41;100888.56;;;11.89;99.23
13612;BME280;6877;51.436;6.774;2022-10-16T05:27:12;100886.78;;;11.89;99.54
13612;BME280;6877;51.436;6.774;2022-10-16T05:29:49;100890.28;;;11.88;99.52
13612;BME280;6877;51.436;6.774;2022-10-16T05:32:21;100894.72;;;11.86;99.75
13612;BME280;6877;51.436;6.774;2022-10-16T05:34:52;100893.91;;;11.82;99.94
13612;BME280;6877;51.436;6.774;2022-10-16T05:37:24;100897.38;;;11.83;99.90
13612;BME280;6877;51.436;6.774;2022-10-16T05:39:55;100894.75;;;11.83;99.94
13612;BME280;6877;51.436;6.774;2022-10-16T05:42:26;100895.63;;;11.82;99.68
13612;BME280;6877;51.436;6.774;2022-10-16T05:44:58;100907.84;;;11.85;99.90
13612;BME280;6877;51.436;6.774;2022-10-16T05:47:29;100906.09;;;11.83;99.77
13612;BME280;6877;51.436;6.774;2022-10-16T05:50:01;100900.91;;;11.80;99.97
13612;BME280;6877;51.436;6.774;2022-10-16T05:52:32;100914.94;;;11.79;99.94
13612;BME280;6877;51.436;6.774;2022-10-16T05:55:04;100910.56;;;11.80;99.78
13612;BME280;6877;51.436;6.774;2022-10-16T05:57:30;100927.16;;;11.80;99.97
13612;BME280;6877;51.436;6.774;2022-10-16T06:00:03;100937.69;;;11.77;100.00
13612;BME280;6877;51.436;6.774;2022-10-16T06:02:35;100936.78;;;11.80;100.00
13612;BME280;6877;51.436;6.774;2022-10-16T06:05:07;100937.69;;;11.77;100.00
13612;BME280;6877;51.436;6.774;2022-10-16T06:07:38;100943.84;;;11.75;100.00
13612;BME280;6877;51.436;6.774;2022-10-16T06:10:09;100943.84;;;11.76;100.00
13612;BME280;6877;51.436;6.774;2022-10-16T06:12:41;100941.28;;;11.73;100.00
13612;BME280;6877;51.436;6.774;2022-10-16T06:15:08;100943.00;;;11.74;100.00
13612;BME280;6877;51.436;6.774;2022-10-16T06:17:39;100949.09;;;11.75;100.00
13612;BME280;6877;51.436;6.774;2022-10-16T06:20:11;100953.50;;;11.74;100.00
13612;BME280;6877;51.436;6.774;2022-10-16T06:22:42;100953.50;;;11.74;100.00
13612;BME280;6877;51.436;6.774;2022-10-16T06:25:09;100955.19;;;11.75;100.00
13612;BME280;6877;51.436;6.774;2022-10-16T06:27:40;100955.19;;;11.75;100.00
13612;BME280;6877;51.436;6.774;2022-10-16T06:30:11;100954.34;;;11.76;100.00
13612;BME280;6877;51.436;6.774;2022-10-16T06:32:43;100971.66;;;11.83;100.00
13612;BME280;6877;51.436;6.774;2022-10-16T06:35:14;100968.94;;;11.90;100.00
13612;BME280;6877;51.436;6.774;2022-10-16T06:37:46;100967.09;;;11.95;100.00
13612;BME280;6877;51.436;6.774;2022-10-16T06:40:17;100969.56;;;12.01;100.00
13612;BME280;6877;51.436;6.774;2022-10-16T06:42:48;100980.78;;;12.09;99.86
13612;BME280;6877;51.436;6.774;2022-10-16T06:45:20;100977.13;;;12.16;99.35
13612;BME280;6877;51.436;6.774;2022-10-16T06:47:51;100985.75;;;12.21;99.43
13612;BME280;6877;51.436;6.774;2022-10-16T06:50:23;100994.47;;;12.23;98.55
13612;BME280;6877;51.436;6.774;2022-10-16T06:52:54;100996.19;;;12.24;98.03
13612;BME280;6877;51.436;6.774;2022-10-16T06:55:26;101010.16;;;12.26;98.16
13612;BME280;6877;51.436;6.774;2022-10-16T06:57:57;101014.50;;;12.26;98.49
13612;BME280;6877;51.436;6.774;2022-10-16T07:00:23;101016.28;;;12.25;98.34
13612;BME280;6877;51.436;6.774;2022-10-16T07:02:55;101023.34;;;12.22;98.55
13612;BME280;6877;51.436;6.774;2022-10-16T07:05:26;101024.28;;;12.21;98.71
13612;BME280;6877;51.436;6.774;2022-10-16T07:07:57;101031.28;;;12.20;98.58
13612;BME280;6877;51.436;6.774;2022-10-16T07:10:29;101042.59;;;12.22;98.61
13612;BME280;6877;51.436;6.774;2022-10-16T07:13:01;101044.41;;;12.20;98.53
13612;BME280;6877;51.436;6.774;2022-10-16T07:15:33;101054.03;;;12.18;98.64
13612;BME280;6877;51.436;6.774;2022-10-16T07:18:05;101056.66;;;12.18;98.70
13612;BME280;6877;51.436;6.774;2022-10-16T07:20:36;101055.75;;;12.19;98.85
13612;BME280;6877;51.436;6.774;2022-10-16T07:23:08;101061.00;;;12.19;98.96
13612;BME280;6877;51.436;6.774;2022-10-16T07:25:39;101066.25;;;12.19;98.95
13612;BME280;6877;51.436;6.774;2022-10-16T07:28:11;101066.25;;;12.19;99.07
13612;BME280;6877;51.436;6.774;2022-10-16T07:30:37;101067.03;;;12.24;99.04
13612;BME280;6877;51.436;6.774;2022-10-16T07:33:09;101061.69;;;12.29;99.41
13612;BME280;6877;51.436;6.774;2022-10-16T07:35:50;101068.50;;;12.38;98.83
13612;BME280;6877;51.436;6.774;2022-10-16T07:38:22;101070.03;;;12.48;97.90
13612;BME280;6877;51.436;6.774;2022-10-16T07:41:02;101079.53;;;12.55;97.91
13612;BME280;6877;51.436;6.774;2022-10-16T07:43:29;101080.16;;;12.66;97.20
13612;BME280;6877;51.436;6.774;2022-10-16T07:45:59;101084.28;;;12.76;97.05
13612;BME280;6877;51.436;6.774;2022-10-16T07:48:32;101083.13;;;13.29;96.99
13612;BME280;6877;51.436;6.774;2022-10-16T07:51:06;101085.53;;;15.77;89.74
13612;BME280;6877;51.436;6.774;2022-10-16T07:53:33;101087.69;;;19.27;80.20
13612;BME280;6877;51.436;6.774;2022-10-16T07:56:06;101099.75;;;22.51;67.63
13612;BME280;6877;51.436;6.774;2022-10-16T07:58:37;101101.31;;;24.91;62.45
13612;BME280;6877;51.436;6.774;2022-10-16T08:01:11;101100.28;;;27.00;55.39
13612;BME280;6877;51.436;6.774;2022-10-16T08:03:45;101098.97;;;27.91;50.03
13612;BME280;6877;51.436;6.774;2022-10-16T08:06:18;101101.47;;;28.35;50.77
13612;BME280;6877;51.436;6.774;2022-10-16T08:08:49;101120.03;;;28.38;51.88
13612;BME280;6877;51.436;6.774;2022-10-16T08:11:21;101113.44;;;28.52;48.35
13612;BME280;6877;51.436;6.774;2022-10-16T08:13:52;101116.94;;;28.42;44.52
13612;BME280;6877;51.436;6.774;2022-10-16T08:16:24;101124.50;;;28.99;44.13
13612;BME280;6877;51.436;6.774;2022-10-16T08:18:55;101120.72;;;29.11;41.64
13612;BME280;6877;51.436;6.774;2022-10-16T08:21:26;101121.91;;;29.67;43.74
13612;BME280;6877;51.436;6.774;2022-10-16T08:23:58;101123.09;;;30.58;38.74
13612;BME280;6877;51.436;6.774;2022-10-16T08:26:30;101132.78;;;31.78;40.22
13612;BME280;6877;51.436;6.774;2022-10-16T08:29:01;101144.34;;;31.62;38.66
13612;BME280;6877;51.436;6.774;2022-10-16T08:31:27;101149.38;;;31.75;38.92
13612;BME280;6877;51.436;6.774;2022-10-16T08:33:59;101141.28;;;31.11;37.29
13612;BME280;6877;51.436;6.774;2022-10-16T08:36:31;101155.00;;;31.28;35.93
13612;BME280;6877;51.436;6.774;2022-10-16T08:39:02;101150.88;;;31.06;39.36
13612;BME280;6877;51.436;6.774;2022-10-16T08:50:28;101170.91;;;30.76;38.08
13612;BME280;6877;51.436;6.774;2022-10-16T08:53:00;101170.88;;;30.48;39.32
13612;BME280;6877;51.436;6.774;2022-10-16T08:55:46;101181.16;;;31.09;41.22
13612;BME280;6877;51.436;6.774;2022-10-16T08:58:27;101184.63;;;31.20;41.27
13612;BME280;6877;51.436;6.774;2022-10-16T09:01:13;101183.88;;;31.27;38.28
13612;BME280;6877;51.436;6.774;2022-10-16T09:06:47;101180.13;;;32.10;38.47
13612;BME280;6877;51.436;6.774;2022-10-16T09:09:48;101180.69;;;31.42;35.74
13612;BME280;6877;51.436;6.774;2022-10-16T09:18:01;101199.50;;;33.17;38.97
13612;BME280;6877;51.436;6.774;2022-10-16T09:20:49;101205.56;;;33.78;36.67
13612;BME280;6877;51.436;6.774;2022-10-16T09:23:26;101197.97;;;33.15;35.23
13612;BME280;6877;51.436;6.774;2022-10-16T09:25:58;101199.91;;;32.96;33.78
13612;BME280;6877;51.436;6.774;2022-10-16T09:28:30;101196.66;;;33.43;35.46
13612;BME280;6877;51.436;6.774;2022-10-16T09:31:01;101195.03;;;32.14;31.13
13612;BME280;6877;51.436;6.774;2022-10-16T09:33:37;101193.66;;;31.10;32.83
13612;BME280;6877;51.436;6.774;2022-10-16T09:36:12;101194.31;;;30.94;33.19
13612;BME280;6877;51.436;6.774;2022-10-16T09:38:44;101204.50;;;31.92;35.76
13612;BME280;6877;51.436;6.774;2022-10-16T09:41:20;101195.88;;;32.40;34.43
13612;BME280;6877;51.436;6.774;2022-10-16T09:43:55;101204.41;;;32.80;35.08
13612;BME280;6877;51.436;6.774;2022-10-16T09:46:34;101197.41;;;32.69;34.15
13612;BME280;6877;51.436;6.774;2022-10-16T09:49:26;101196.69;;;32.59;34.98
13612;BME280;6877;51.436;6.774;2022-10-16T09:52:24;101208.25;;;33.54;35.33
13612;BME280;6877;51.436;6.774;2022-10-16T09:57:28;101209.50;;;33.25;34.35
13612;BME280;6877;51.436;6.774;2022-10-16T10:00:08;101209.97;;;32.78;34.94
13612;BME280;6877;51.436;6.774;2022-10-16T10:02:40;101209.50;;;30.78;35.70
13612;BME280;6877;51.436;6.774;2022-10-16T10:08:12;101206.31;;;32.53;34.34
13612;BME280;6877;51.436;6.774;2022-10-16T10:10:48;101220.59;;;32.97;33.19
13612;BME280;6877;51.436;6.774;2022-10-16T10:13:21;101212.94;;;32.59;31.98
13612;BME280;6877;51.436;6.774;2022-10-16T10:15:53;101211.88;;;32.51;32.37
13612;BME280;6877;51.436;6.774;2022-10-16T10:18:25;101212.47;;;32.63;32.33
13612;BME280;6877;51.436;6.774;2022-10-16T10:20:59;101221.53;;;30.07;34.55
13612;BME280;6877;51.436;6.774;2022-10-16T10:23:31;101220.09;;;30.13;37.88
13612;BME280;6877;51.436;6.774;2022-10-16T10:34:49;101211.81;;;31.99;32.80
13612;BME280;6877;51.436;6.774;2022-10-16T10:37:33;101216.88;;;33.49;33.65
13612;BME280;6877;51.436;6.774;2022-10-16T10:43:16;101224.91;;;33.83;29.58
13612;BME280;6877;51.436;6.774;2022-10-16T10:45:55;101229.31;;;34.25;30.08
13612;BME280;6877;51.436;6.774;2022-10-16T10:48:58;101219.28;;;33.02;28.35
13612;BME280;6877;51.436;6.774;2022-10-16T10:57:35;101224.41;;;24.14;44.43
13612;BME280;6877;51.436;6.774;2022-10-16T11:09:09;101222.72;;;20.57;53.48
13612;BME280;6877;51.436;6.774;2022-10-16T11:11:45;101221.41;;;20.31;53.57
13612;BME280;6877;51.436;6.774;2022-10-16T11:14:25;101229.28;;;20.16;54.24
13612;BME280;6877;51.436;6.774;2022-10-16T11:17:31;101232.09;;;19.95;54.31
13612;BME280;6877;51.436;6.774;2022-10-16T11:20:19;101225.09;;;20.11;54.90
13612;BME280;6877;51.436;6.774;2022-10-16T11:22:56;101231.25;;;20.12;55.39
13612;BME280;6877;51.436;6.774;2022-10-16T11:25:31;101228.91;;;20.06;54.67
13612;BME280;6877;51.436;6.774;2022-10-16T11:30:46;101230.72;;;20.05;54.61
13612;BME280;6877;51.436;6.774;2022-10-16T11:36:16;101242.44;;;20.19;52.31
13612;BME280;6877;51.436;6.774;2022-10-16T11:47:34;101233.81;;;19.41;54.91
13612;BME280;6877;51.436;6.774;2022-10-16T11:53:18;101245.50;;;19.75;53.85
13612;BME280;6877;51.436;6.774;2022-10-16T11:55:54;101251.88;;;20.07;52.71
13612;BME280;6877;51.436;6.774;2022-10-16T11:58:31;101256.31;;;20.24;52.34
13612;BME280;6877;51.436;6.774;2022-10-16T12:06:25;101257.19;;;20.42;51.94
13612;BME280;6877;51.436;6.774;2022-10-16T12:09:00;101260.84;;;20.39;52.25
13612;BME280;6877;51.436;6.774;2022-10-16T12:11:35;101262.22;;;20.30;51.58
13612;BME280;6877;51.436;6.774;2022-10-16T12:19:29;101258.84;;;19.73;52.95
13612;BME280;6877;51.436;6.774;2022-10-16T12:22:02;101260.72;;;19.52;54.11
13612;BME280;6877;51.436;6.774;2022-10-16T12:24:41;101259.88;;;19.33;54.48
13612;BME280;6877;51.436;6.774;2022-10-16T12:30:04;101249.69;;;19.24;55.70
13612;BME280;6877;51.436;6.774;2022-10-16T12:32:38;101256.34;;;19.32;55.63
13612;BME280;6877;51.436;6.774;2022-10-16T12:35:26;101255.81;;;19.62;54.82
13612;BME280;6877;51.436;6.774;2022-10-16T12:37:54;101256.59;;;19.83;54.14
13612;BME280;6877;51.436;6.774;2022-10-16T12:42:59;101257.75;;;20.31;53.37
13612;BME280;6877;51.436;6.774;2022-10-16T12:45:37;101266.38;;;20.53;52.00
13612;BME280;6877;51.436;6.774;2022-10-16T12:48:22;101262.75;;;20.37;52.40
13612;BME280;6877;51.436;6.774;2022-10-16T12:50:53;101264.94;;;20.11;53.17
13612;BME280;6877;51.436;6.774;2022-10-16T12:53:26;101267.31;;;19.81;53.99
13612;BME280;6877;51.436;6.774;2022-10-16T13:21:14;101266.94;;;19.32;56.23
13612;BME280;6877;51.436;6.774;2022-10-16T13:24:03;101264.53;;;19.28;56.11
13612;BME280;6877;51.436;6.774;2022-10-16T13:26:49;101276.13;;;19.25;55.74
13612;BME280;6877;51.436;6.774;2022-10-16T13:29:30;101279.00;;;19.20;56.18
13612;BME280;6877;51.436;6.774;2022-10-16T13:32:07;101279.78;;;19.22;56.33
13612;BME280;6877;51.436;6.774;2022-10-16T13:34:44;101287.59;;;19.26;55.88
13612;BME280;6877;51.436;6.774;2022-10-16T13:37:21;101286.91;;;19.41;54.72
13612;BME280;6877;51.436;6.774;2022-10-16T13:40:06;101284.59;;;19.52;54.26
13612;BME280;6877;51.436;6.774;2022-10-16T13:42:40;101276.13;;;19.44;53.86
13612;BME280;6877;51.436;6.774;2022-10-16T13:45:20;101274.75;;;19.35;54.05
13612;BME280;6877;51.436;6.774;2022-10-16T13:48:02;101283.25;;;19.25;54.81
13612;BME280;6877;51.436;6.774;2022-10-16T13:50:33;101277.41;;;19.16;55.07
13612;BME280;6877;51.436;6.774;2022-10-16T13:53:07;101272.25;;;19.13;55.85
13612;BME280;6877;51.436;6.774;2022-10-16T13:55:44;101268.41;;;19.20;55.88
13612;BME280;6877;51.436;6.774;2022-10-16T13:58:15;101275.13;;;19.28;55.81
13612;BME280;6877;51.436;6.774;2022-10-16T14:01:14;101281.97;;;19.33;55.89
13612;BME280;6877;51.436;6.774;2022-10-16T14:03:48;101281.38;;;19.27;55.63
13612;BME280;6877;51.436;6.774;2022-10-16T14:06:21;101290.63;;;19.18;56.32
13612;BME280;6877;51.436;6.774;2022-10-16T14:11:28;101291.41;;;19.01;56.71
13612;BME280;6877;51.436;6.774;2022-10-16T14:14:00;101291.88;;;18.90;56.44
13612;BME280;6877;51.436;6.774;2022-10-16T14:16:33;101295.59;;;18.86;56.29
13612;BME280;6877;51.436;6.774;2022-10-16T14:19:05;101300.94;;;18.85;55.49
13612;BME280;6877;51.436;6.774;2022-10-16T14:21:40;101291.69;;;18.74;55.10
13612;BME280;6877;51.436;6.774;2022-10-16T14:24:13;101290.94;;;18.71;55.87
13612;BME280;6877;51.436;6.774;2022-10-16T14:26:53;101279.75;;;18.64;55.45
13612;BME280;6877;51.436;6.774;2022-10-16T14:29:28;101262.16;;;18.62;56.07
13612;BME280;6877;51.436;6.774;2022-10-16T14:32:05;101270.19;;;18.60;56.24
13612;BME280;6877;51.436;6.774;2022-10-16T14:34:38;101286.03;;;18.62;56.13
13612;BME280;6877;51.436;6.774;2022-10-16T14:37:27;101283.31;;;18.63;55.98
13612;BME280;6877;51.436;6.774;2022-10-16T14:39:59;101287.00;;;18.59;56.15
13612;BME280;6877;51.436;6.774;2022-10-16T14:42:32;101285.44;;;18.55;56.89
13612;BME280;6877;51.436;6.774;2022-10-16T14:45:08;101291.97;;;18.46;57.01
13612;BME280;6877;51.436;6.774;2022-10-16T14:47:49;101288.94;;;18.35;57.38
13612;BME280;6877;51.436;6.774;2022-10-16T14:50:21;101285.63;;;18.30;57.82
13612;BME280;6877;51.436;6.774;2022-10-16T14:52:53;101296.09;;;18.33;58.11
13612;BME280;6877;51.436;6.774;2022-10-16T14:55:25;101294.13;;;18.38;57.63
13612;BME280;6877;51.436;6.774;2022-10-16T14:57:56;101290.56;;;18.38;57.13
13612;BME280;6877;51.436;6.774;2022-10-16T15:00:28;101290.56;;;18.38;57.54
13612;BME280;6877;51.436;6.774;2022-10-16T15:02:59;101287.19;;;18.34;57.59
13612;BME280;6877;51.436;6.774;2022-10-16T15:05:31;101292.03;;;18.24;57.68
13612;BME280;6877;51.436;6.774;2022-10-16T15:08:03;101290.81;;;18.11;57.61
13612;BME280;6877;51.436;6.774;2022-10-16T15:10:40;101294.78;;;18.01;58.22
13612;BME280;6877;51.436;6.774;2022-10-16T15:13:13;101290.72;;;17.92;59.27
13612;BME280;6877;51.436;6.774;2022-10-16T15:15:46;101282.31;;;17.81;60.22
13612;BME280;6877;51.436;6.774;2022-10-16T15:18:18;101276.38;;;17.74;60.59
13612;BME280;6877;51.436;6.774;2022-10-16T15:20:53;101276.59;;;17.70;61.59
13612;BME280;6877;51.436;6.774;2022-10-16T15:23:25;101280.31;;;17.64;61.40
13612;BME280;6877;51.436;6.774;2022-10-16T15:25:56;101271.56;;;17.62;61.63
13612;BME280;6877;51.436;6.774;2022-10-16T15:28:28;101274.34;;;17.59;61.82
13612;BME280;6877;51.436;6.774;2022-10-16T15:30:59;101270.09;;;17.55;62.02
13612;BME280;6877;51.436;6.774;2022-10-16T15:33:31;101266.72;;;17.51;62.00
13612;BME280;6877;51.436;6.774;2022-10-16T15:36:06;101264.19;;;17.48;62.26
13612;BME280;6877;51.436;6.774;2022-10-16T15:38:38;101267.88;;;17.44;62.57